Time;durP1;ratioP1;P1;durP2;ratioP2;P2;SDS_P1;SDS_P2;PMS_P1;PMS_P2;Temp;Humidity;BMP_temperature;BMP_pressure;BME280_temperature;BME280_humidity;BME280_pressure;Samples;Min_cycle;Max_cycle;Signal;HPM_P1;HPM_P2
2021/04/06 00:00:29;;;;;;;3.10;0.87;;;;;;;0.98;78.94;99212.62;5083986;57;1132318;-73
2021/04/06 00:06:01;;;;;;;4.15;0.98;;;;;;;0.95;79.54;99214.94;5083642;57;1132403;-73
2021/04/06 00:11:27;;;;;;;1.70;0.90;;;;;;;0.95;79.75;99224.05;5082748;57;1132318;-73
2021/04/06 00:16:54;;;;;;;2.42;1.40;;;;;;;0.87;81.06;99222.38;5083936;57;1132398;-71
2021/04/06 00:22:22;;;;;;;3.77;1.23;;;;;;;0.81;82.40;99238.34;5083764;57;1132357;-71
2021/04/06 00:27:52;;;;;;;2.77;1.37;;;;;;;0.64;85.08;99255.38;4986200;58;1132624;-73
2021/04/06 00:33:29;;;;;;;2.83;1.93;;;;;;;0.50;85.49;99265.27;5169815;56;1132268;-73
2021/04/06 00:38:55;;;;;;;1.87;1.60;;;;;;;0.41;85.43;99267.10;5154095;56;1132809;-73
2021/04/06 00:44:22;;;;;;;4.47;1.87;;;;;;;0.39;86.51;99268.95;5146341;56;1132323;-72
2021/04/06 00:49:49;;;;;;;3.07;1.60;;;;;;;0.38;86.07;99274.23;5146504;56;1132821;-72
2021/04/06 00:55:21;;;;;;;2.10;1.90;;;;;;;0.36;87.00;99276.91;5145949;56;1132158;-72
2021/04/06 01:00:46;;;;;;;3.03;1.53;;;;;;;0.33;86.61;99280.52;5191808;56;1132752;-73
2021/04/06 01:06:12;;;;;;;2.37;1.50;;;;;;;0.32;87.62;99287.94;4983462;57;1132200;-72
2021/04/06 01:11:38;;;;;;;5.23;1.97;;;;;;;0.34;87.10;99287.86;4934605;57;1132158;-72
2021/04/06 01:17:08;;;;;;;4.85;1.50;;;;;;;0.35;87.91;99292.14;4994204;57;1132290;-73
2021/04/06 01:22:34;;;;;;;4.30;2.47;;;;;;;0.38;87.05;99297.64;5056412;57;1132667;-74
2021/04/06 01:28:08;;;;;;;1.87;1.42;;;;;;;0.35;87.89;99300.78;5060672;57;1132528;-73
2021/04/06 01:33:36;;;;;;;6.03;1.70;;;;;;;0.35;87.69;99310.34;5226297;56;1132304;-73
2021/04/06 01:39:01;;;;;;;9.43;2.33;;;;;;;0.30;87.50;99310.62;5227007;55;1132496;-73
2021/04/06 01:44:28;;;;;;;9.13;1.60;;;;;;;0.28;87.66;99311.62;5064669;57;1132338;-73
2021/04/06 01:49:56;;;;;;;6.85;1.25;;;;;;;0.28;86.91;99315.05;5227661;55;1132561;-72
2021/04/06 01:55:35;;;;;;;8.23;2.20;;;;;;;0.30;86.72;99334.02;5064670;57;1132610;-73
2021/04/06 02:06:42;;;;;;;10.43;1.03;;;;;;;0.32;86.34;99336.05;5045694;57;1134457;-72
2021/04/06 02:12:08;;;;;;;11.20;1.37;;;;;;;0.33;85.65;99338.19;5011685;57;1134166;-72
2021/04/06 02:17:33;;;;;;;6.62;1.17;;;;;;;0.35;85.39;99341.09;5068760;56;1134253;-71
2021/04/06 02:23:03;;;;;;;15.83;2.00;;;;;;;0.36;84.82;99336.73;5037531;57;1132541;-74
2021/04/06 02:28:27;;;;;;;8.57;1.70;;;;;;;0.37;84.52;99351.41;4997738;57;1134159;-73
2021/04/06 02:33:52;;;;;;;15.50;2.65;;;;;;;0.37;83.58;99350.11;5051954;57;1132332;-73
2021/04/06 02:39:18;;;;;;;12.07;2.10;;;;;;;0.33;83.02;99350.73;5079605;57;1134404;-73
2021/04/06 02:44:43;;;;;;;51.40;16.90;;;;;;;0.31;82.98;99354.33;5079604;57;1134292;-72
2021/04/06 02:50:13;;;;;;;46.47;19.47;;;;;;;0.27;82.74;99354.14;5079445;57;1136231;-72
2021/04/06 02:55:41;;;;;;;32.63;12.63;;;;;;;0.27;82.23;99364.09;5079610;57;1136482;-73
2021/04/06 03:01:18;;;;;;;242.33;91.63;;;;;;;0.25;82.19;99363.78;4990044;57;1136798;-73
2021/04/06 03:06:44;;;;;;;40.17;15.27;;;;;;;0.22;82.17;99369.14;5071883;56;1138577;-74
2021/04/06 03:12:10;;;;;;;57.13;11.57;;;;;;;0.15;82.02;99369.11;4988984;57;1136716;-73
2021/04/06 03:17:49;;;;;;;87.40;15.97;;;;;;;0.10;81.84;99368.50;5072077;56;1136916;-73
2021/04/06 03:23:14;;;;;;;93.80;16.77;;;;;;;0.04;81.79;99370.95;5225657;55;1136667;-73
2021/04/06 03:28:41;;;;;;;20.30;5.10;;;;;;;0.02;81.92;99378.45;5225383;56;1136722;-73
2021/04/06 03:34:07;;;;;;;25.77;3.77;;;;;;;0.03;82.10;99377.07;4992442;57;1134581;-72
2021/04/06 03:39:38;;;;;;;31.57;6.57;;;;;;;0.07;82.01;99386.86;4990976;57;1134525;-74
2021/04/06 03:45:11;;;;;;;64.03;26.33;;;;;;;0.09;81.69;99398.02;4945678;57;1134692;-73
2021/04/06 03:50:41;;;;;;;79.32;20.82;;;;;;;0.11;81.42;99403.52;5035210;58;1136792;-73
2021/04/06 03:56:13;;;;;;;47.85;11.95;;;;;;;0.11;81.20;99410.48;5004827;58;1136563;-73
2021/04/06 04:01:38;;;;;;;31.93;8.17;;;;;;;0.11;81.09;99409.17;5004829;58;1136472;-73
2021/04/06 04:07:04;;;;;;;13.20;3.27;;;;;;;0.12;81.01;99415.59;5005134;58;1136538;-73
2021/04/06 04:12:29;;;;;;;30.23;7.77;;;;;;;0.07;80.89;99424.09;5004717;58;1134336;-74
2021/04/06 04:17:55;;;;;;;11.65;3.90;;;;;;;0.09;80.98;99420.95;5005178;58;1134654;-72
2021/04/06 04:23:21;;;;;;;35.97;7.60;;;;;;;0.09;80.71;99418.81;5005517;58;1135102;-73
2021/04/06 04:28:46;;;;;;;17.67;3.27;;;;;;;0.09;80.45;99412.31;5005335;58;1134371;-73
2021/04/06 04:34:12;;;;;;;12.70;2.93;;;;;;;0.08;80.27;99419.73;5005267;58;1134434;-74
2021/04/06 04:39:37;;;;;;;23.23;5.33;;;;;;;0.07;80.10;99418.05;5005467;58;1134483;-73
2021/04/06 04:45:03;;;;;;;11.95;3.42;;;;;;;0.02;79.93;99413.08;5032811;57;1135004;-74
2021/04/06 04:50:28;;;;;;;10.63;3.90;;;;;;;-0.01;79.65;99413.27;5055851;57;1134461;-73
2021/04/06 04:55:53;;;;;;;22.40;3.70;;;;;;;0.00;79.48;99418.36;4985391;57;1141281;-74
2021/04/06 05:01:19;;;;;;;7.00;2.47;;;;;;;-0.03;79.45;99421.59;5035973;56;1134208;-72
2021/04/06 05:06:44;;;;;;;21.73;6.33;;;;;;;-0.05;79.67;99437.73;5220780;55;1134439;-72
2021/04/06 05:12:10;;;;;;;20.33;6.43;;;;;;;-0.04;79.58;99447.20;5083299;57;1136539;-73
2021/04/06 05:17:36;;;;;;;9.17;2.10;;;;;;;-0.02;79.66;99450.11;5083693;57;1136707;-73
2021/04/06 05:23:02;;;;;;;14.12;3.66;;;;;;;-0.02;79.26;99454.47;5084041;57;1134604;-73
2021/04/06 05:28:27;;;;;;;6.95;2.02;;;;;;;-0.03;79.17;99457.98;5083760;57;1136534;-73
2021/04/06 05:33:57;;;;;;;9.80;1.52;;;;;;;-0.02;78.92;99457.06;5084046;57;1134427;-73
2021/04/06 05:39:22;;;;;;;13.67;1.57;;;;;;;-0.03;79.25;99454.92;5084073;57;1134247;-74
2021/04/06 05:44:49;;;;;;;10.87;2.50;;;;;;;-0.05;78.83;99461.12;5064870;57;1136430;-73
2021/04/06 05:50:15;;;;;;;8.80;3.23;;;;;;;-0.02;79.17;99460.97;4901782;58;1136370;-73
2021/04/06 05:55:41;;;;;;;3.57;1.70;;;;;;;-0.01;78.95;99469.98;4928624;58;1134288;-73
2021/04/06 06:01:06;;;;;;;6.72;2.83;;;;;;;0.02;78.90;99470.72;4945536;57;1134306;-73
2021/04/06 06:06:31;;;;;;;11.67;2.13;;;;;;;0.05;78.86;99467.52;4934748;59;1133003;-73
2021/04/06 06:12:13;;;;;;;15.85;3.25;;;;;;;0.09;79.40;99460.41;4988271;58;1134661;-72
2021/04/06 06:17:38;;;;;;;7.80;2.10;;;;;;;0.12;79.03;99460.25;4903828;58;1134264;-72
2021/04/06 06:23:22;;;;;;;5.10;1.77;;;;;;;0.14;78.58;99448.02;4961233;57;1132669;-73
2021/04/06 06:29:16;;;;;;;5.10;1.47;;;;;;;0.17;78.24;99469.47;5009164;58;1132426;-72
2021/04/06 06:34:42;;;;;;;8.23;1.93;;;;;;;0.21;78.41;99457.16;4989865;58;1132365;-72
2021/04/06 06:40:08;;;;;;;5.97;1.30;;;;;;;0.21;78.42;99457.16;4964752;58;1132409;-72
2021/04/06 06:45:36;;;;;;;5.57;2.00;;;;;;;0.27;78.72;99466.80;4966974;58;1132609;-72
2021/04/06 06:51:04;;;;;;;10.03;2.35;;;;;;;0.37;78.60;99474.94;4890583;58;1132485;-72
2021/04/06 06:56:41;;;;;;;22.53;2.63;;;;;;;0.44;78.65;99465.91;4833944;59;1134476;-73
2021/04/06 07:02:31;;;;;;;8.48;2.58;;;;;;;0.49;78.01;99470.39;5036401;57;1134432;-73
2021/04/06 07:08:06;;;;;;;4.67;2.35;;;;;;;0.55;78.08;99467.93;5036143;57;1132669;-73
2021/04/06 07:13:33;;;;;;;;;;;;;;;0.63;77.59;99473.55;5040695;57;1132579;-72
2021/04/06 07:18:59;;;;;;;8.33;2.37;;;;;;;0.74;78.04;99479.50;4999346;58;970176;-72
2021/04/06 07:24:35;;;;;;;1.83;1.63;;;;;;;0.81;77.67;99472.56;5015968;58;1130244;-72
2021/04/06 07:30:02;;;;;;;7.70;2.02;;;;;;;0.86;77.41;99487.48;5186126;56;1132456;-72
2021/04/06 07:35:28;;;;;;;14.23;3.43;;;;;;;0.92;77.57;99486.28;4935224;58;1132417;-72
2021/04/06 07:40:55;;;;;;;6.43;2.10;;;;;;;0.98;77.57;99489.87;4937144;58;1134718;-72
2021/04/06 07:46:37;;;;;;;5.93;1.63;;;;;;;0.98;76.81;99491.17;5033418;58;1132487;-72
2021/04/06 07:52:07;;;;;;;16.10;2.42;;;;;;;0.91;76.51;99497.19;5021459;57;1132863;-72
2021/04/06 07:57:50;;;;;;;6.77;2.23;;;;;;;0.92;77.64;99497.54;5032964;58;1134628;-72
2021/04/06 08:03:21;;;;;;;10.57;2.33;;;;;;;1.00;77.65;99501.88;4965590;58;1132597;-72
2021/04/06 08:08:47;;;;;;;8.43;2.03;;;;;;;1.02;77.43;99499.20;5004577;57;1134271;-72
2021/04/06 08:14:14;;;;;;;6.42;3.05;;;;;;;1.07;76.47;99513.27;5015686;58;1132405;-72
2021/04/06 08:19:53;;;;;;;9.00;2.70;;;;;;;1.10;76.97;99508.72;4965882;58;1132597;-71
2021/04/06 08:25:22;;;;;;;11.40;2.63;;;;;;;1.17;76.83;99515.73;4955990;58;1132478;-71
2021/04/06 08:30:47;;;;;;;7.83;3.20;;;;;;;1.22;76.83;99515.84;5016400;58;1134503;-71
2021/04/06 08:36:28;;;;;;;13.83;2.73;;;;;;;1.23;76.55;99517.98;5015447;58;1132343;-69
2021/04/06 08:41:54;;;;;;;11.70;5.43;;;;;;;1.30;76.65;99521.95;4936136;58;1134559;-73
2021/04/06 08:47:39;;;;;;;13.90;4.00;;;;;;;1.39;77.03;99517.05;4928797;59;1134703;-72
2021/04/06 08:53:06;;;;;;;9.57;2.70;;;;;;;1.55;76.47;99510.52;5005947;57;1134576;-72
2021/04/06 08:58:32;;;;;;;16.57;3.20;;;;;;;1.64;76.60;99507.41;5153359;56;1132228;-72
2021/04/06 09:04:02;;;;;;;18.73;4.20;;;;;;;1.86;76.95;99508.75;5144008;56;1141498;-72
2021/04/06 09:09:30;;;;;;;14.60;3.13;;;;;;;1.97;74.80;99511.60;5111365;56;1134396;-72
2021/04/06 09:14:57;;;;;;;11.83;4.93;;;;;;;2.02;74.56;99492.13;5037323;58;1134705;-71
2021/04/06 09:20:24;;;;;;;18.63;3.83;;;;;;;2.30;74.88;99491.32;4939059;59;1134538;-77
2021/04/06 09:25:49;;;;;;;7.43;2.97;;;;;;;2.57;75.68;99491.44;5014706;57;1134489;-81
2021/04/06 09:31:15;;;;;;;115.30;42.60;;;;;;;2.87;73.46;99495.23;4968770;58;1132351;-75
2021/04/06 09:36:44;;;;;;;53.73;22.20;;;;;;;2.78;72.13;99490.56;5012256;57;1138608;-74
2021/04/06 09:42:10;;;;;;;47.62;24.20;;;;;;;2.73;72.60;99486.95;5122770;56;1136582;-72
2021/04/06 09:47:37;;;;;;;21.70;8.37;;;;;;;2.77;73.18;99491.50;5109805;56;1136597;-83
2021/04/06 09:53:03;;;;;;;10.33;3.03;;;;;;;2.87;71.66;99490.02;5032031;57;1134507;-82
2021/04/06 09:58:28;;;;;;;25.80;8.73;;;;;;;2.87;70.54;99475.66;4986218;58;1134724;-77
2021/04/06 10:04:02;;;;;;;35.52;12.84;;;;;;;2.82;69.20;99477.70;5110234;56;1135057;-76
2021/04/06 10:09:32;;;;;;;14.43;3.67;;;;;;;2.73;68.47;99471.30;5093155;57;1136986;-81
2021/04/06 10:14:59;;;;;;;11.73;5.63;;;;;;;2.80;69.38;99473.88;4948500;58;1136567;-79
2021/04/06 10:20:29;;;;;;;17.17;2.23;;;;;;;3.10;67.85;99470.27;5073735;57;1134276;-73
2021/04/06 10:25:54;;;;;;;16.00;3.87;;;;;;;3.39;65.02;99471.01;5027645;56;1134812;-73
2021/04/06 10:31:19;;;;;;;18.20;2.73;;;;;;;3.62;66.25;99470.83;5079650;56;1134536;-72
2021/04/06 10:36:57;;;;;;;6.37;1.80;;;;;;;3.98;64.55;99474.06;5004848;57;1134676;-72
2021/04/06 10:42:22;;;;;;;5.12;1.50;;;;;;;3.98;64.55;99474.06;4980118;57;1132711;-76
2021/04/06 10:47:54;;;;;;;10.33;2.77;;;;;;;4.10;63.11;99455.79;5013839;57;1132467;-76
2021/04/06 10:53:32;;;;;;;5.37;1.37;;;;;;;4.11;58.37;99454.84;5081308;56;1134810;-73
2021/04/06 10:59:06;;;;;;;5.53;1.72;;;;;;;4.25;59.03;99449.98;4982633;57;1132730;-73
2021/04/06 11:04:40;;;;;;;10.95;1.85;;;;;;;4.18;59.31;99449.55;5135295;56;1132887;-72
2021/04/06 11:10:09;;;;;;;7.35;2.75;;;;;;;4.33;61.63;99450.27;5137604;56;1134846;-73
2021/04/06 11:15:34;;;;;;;6.33;2.17;;;;;;;4.79;61.96;99432.66;5141275;56;1132776;-74
2021/04/06 11:20:59;;;;;;;2.73;1.57;;;;;;;5.05;58.44;99429.47;5142432;56;1142487;-76
2021/04/06 11:26:25;;;;;;;6.77;2.40;;;;;;;4.90;57.00;99431.41;5145124;56;1132514;-72
2021/04/06 11:31:58;;;;;;;12.67;2.43;;;;;;;4.79;58.60;99428.25;5068984;56;1132481;-75
2021/04/06 11:37:23;;;;;;;7.27;1.70;;;;;;;4.72;57.72;99428.81;5042114;57;1134576;-76
2021/04/06 11:42:48;;;;;;;8.58;1.15;;;;;;;4.74;57.58;99425.58;5040888;57;1132516;-78
2021/04/06 11:48:14;;;;;;;5.97;1.65;;;;;;;4.83;58.04;99427.09;5065066;56;1132847;-76
2021/04/06 11:53:41;;;;;;;10.07;3.93;;;;;;;4.68;57.78;99430.80;5142343;56;1132852;-75
2021/04/06 11:59:07;;;;;;;5.83;2.85;;;;;;;4.64;58.41;99423.27;5107234;56;1134924;-76
2021/04/06 12:04:32;;;;;;;3.10;1.60;;;;;;;4.76;57.60;99421.91;4977888;57;1132480;-73
2021/04/06 12:10:00;;;;;;;7.90;1.52;;;;;;;5.35;54.67;99422.49;4998899;57;1132746;-75
2021/04/06 12:15:24;;;;;;;7.20;1.47;;;;;;;5.16;55.79;99425.62;4927446;58;1132657;-74
2021/04/06 12:20:50;;;;;;;7.40;2.13;;;;;;;5.26;56.83;99424.83;4930736;57;1132560;-75
2021/04/06 12:26:15;;;;;;;3.33;1.32;;;;;;;5.40;56.71;99424.28;4931827;57;1132508;-75
2021/04/06 12:31:41;;;;;;;5.23;2.17;;;;;;;5.79;53.54;99420.02;4931684;58;1132642;-74
2021/04/06 12:37:06;;;;;;;5.05;1.80;;;;;;;6.09;54.45;99405.55;4935340;58;1132947;-74
2021/04/06 12:42:32;;;;;;;11.67;2.73;;;;;;;6.33;52.91;99397.91;4931180;57;1132770;-74
2021/04/06 12:47:57;;;;;;;6.00;1.77;;;;;;;6.58;51.72;99398.13;4955215;57;1134859;-72
2021/04/06 12:53:22;;;;;;;5.80;1.50;;;;;;;6.51;47.67;99396.95;4933236;58;1133125;-77
2021/04/06 12:58:47;;;;;;;7.00;1.90;;;;;;;6.66;48.41;99387.02;4911134;57;1132893;-75
2021/04/06 13:04:12;;;;;;;45.98;21.57;;;;;;;6.78;48.53;99382.58;5017770;57;1132546;-78
2021/04/06 13:09:36;;;;;;;4.67;1.87;;;;;;;6.54;48.27;99385.38;4908654;59;1136746;-73
2021/04/06 13:15:01;;;;;;;9.90;4.20;;;;;;;6.80;50.44;99372.30;4951138;58;1132635;-75
2021/04/06 13:20:26;;;;;;;5.70;1.83;;;;;;;7.05;48.84;99371.14;4988930;58;1132542;-76
2021/04/06 13:25:52;;;;;;;1.80;1.00;;;;;;;7.14;45.75;99380.09;4947359;58;1133161;-78
2021/04/06 13:31:18;;;;;;;5.53;1.43;;;;;;;6.83;46.33;99365.49;4947970;57;1132731;-78
2021/04/06 13:36:44;;;;;;;9.63;3.03;;;;;;;6.78;48.31;99375.53;4945927;58;1132494;-77
2021/04/06 13:42:10;;;;;;;4.85;1.32;;;;;;;6.82;48.42;99382.70;5009975;57;1132729;-72
2021/04/06 13:47:36;;;;;;;38.87;11.93;;;;;;;6.42;46.53;99387.62;4945724;58;1132764;-74
2021/04/06 13:53:01;;;;;;;11.50;4.93;;;;;;;6.13;50.19;99385.48;5113966;56;1139762;-73
2021/04/06 13:58:27;;;;;;;5.37;1.70;;;;;;;6.08;54.04;99394.69;4920219;58;1135090;-74
2021/04/06 14:03:52;;;;;;;11.30;1.93;;;;;;;6.39;54.46;99402.34;5062678;56;1132548;-73
2021/04/06 14:09:18;;;;;;;1.32;0.65;;;;;;;6.66;55.55;99406.25;5157012;55;1134882;-77
2021/04/06 14:14:44;;;;;;;8.40;2.27;;;;;;;6.32;52.80;99405.43;5154055;56;1132263;-75
2021/04/06 14:20:13;;;;;;;8.73;3.72;;;;;;;6.33;53.11;99401.02;5152688;55;1132508;-73
2021/04/06 14:25:40;;;;;;;5.63;2.10;;;;;;;6.21;50.54;99409.38;5154528;55;1132578;-76
2021/04/06 14:31:07;;;;;;;3.85;1.70;;;;;;;6.23;51.26;99410.57;4992483;57;1132642;-76
2021/04/06 14:36:32;;;;;;;11.67;2.90;;;;;;;6.39;49.99;99403.65;5067522;56;1132561;-74
2021/04/06 14:41:58;;;;;;;198.87;55.87;;;;;;;6.21;51.66;99413.78;5098831;56;1134363;-77
2021/04/06 14:47:24;;;;;;;48.30;14.87;;;;;;;6.02;51.57;99408.27;5117782;56;1139276;-77
2021/04/06 14:52:50;;;;;;;44.90;21.27;;;;;;;5.67;52.45;99407.80;5063248;56;1136985;-73
2021/04/06 14:58:17;;;;;;;10.10;5.33;;;;;;;5.26;54.23;99411.72;5116835;56;1136830;-76
2021/04/06 15:03:47;;;;;;;62.47;18.37;;;;;;;4.98;56.10;99405.98;5081845;56;1134592;-75
2021/04/06 15:09:08;;;;;;;34.27;10.37;;;;;;;4.71;57.73;99407.02;5030214;56;1136962;-73
2021/04/06 15:14:34;;;;;;;20.87;10.03;;;;;;;4.58;58.11;99397.06;4926880;58;1136764;-77
2021/04/06 18:53:54;;;;;;;9.83;4.23;;;;;;;2.59;68.35;99472.62;5285261;54;46308;-75
2021/04/06 18:59:21;;;;;;;11.57;4.83;;;;;;;2.52;68.80;99472.61;4966127;56;1128157;-73
2021/04/06 19:04:46;;;;;;;11.77;3.90;;;;;;;2.43;68.67;99475.33;5009652;56;1134108;-71
2021/04/06 19:10:17;;;;;;;5.93;3.53;;;;;;;2.36;68.77;99477.08;5063102;56;1134763;-71
2021/04/06 19:15:47;;;;;;;11.60;4.30;;;;;;;2.31;69.20;99481.73;5103239;56;1132394;-71
2021/04/06 19:21:18;;;;;;;16.90;6.37;;;;;;;2.24;69.15;99478.66;5108171;57;1134563;-74
2021/04/06 19:26:44;;;;;;;11.00;4.07;;;;;;;2.23;69.07;99476.98;5107946;55;1134962;-74
2021/04/06 19:32:10;;;;;;;13.07;4.53;;;;;;;2.16;69.66;99474.82;5107357;57;1134548;-73
2021/04/06 19:37:36;;;;;;;34.53;10.58;;;;;;;2.05;70.12;99465.88;5108228;57;1134740;-72
2021/04/06 19:43:01;;;;;;;19.17;7.13;;;;;;;2.03;70.65;99468.20;5105319;56;1136397;-72
2021/04/06 19:48:27;;;;;;;17.83;5.83;;;;;;;2.00;70.57;99472.28;5107907;57;1134725;-71
2021/04/06 19:53:53;;;;;;;21.40;7.50;;;;;;;1.98;70.78;99464.58;5086619;57;1134409;-76
2021/04/06 19:59:18;;;;;;;24.27;9.48;;;;;;;1.93;71.40;99468.37;5076168;57;1134650;-76
2021/04/06 20:04:43;;;;;;;41.93;15.03;;;;;;;1.88;71.36;99463.42;5073657;57;1134801;-74
2021/04/06 20:10:11;;;;;;;16.45;6.03;;;;;;;1.82;71.95;99460.36;5073349;57;1136818;-76
2021/04/06 20:15:39;;;;;;;19.07;7.17;;;;;;;1.82;71.82;99454.68;5073400;57;1134447;-72
2021/04/06 20:21:12;;;;;;;40.57;11.23;;;;;;;1.82;72.24;99457.75;5073542;57;1134502;-73
2021/04/06 20:26:39;;;;;;;13.77;4.80;;;;;;;1.77;72.55;99448.88;5155447;56;1136787;-71
2021/04/06 20:32:08;;;;;;;12.87;5.77;;;;;;;1.69;74.36;99466.72;4929592;58;1134222;-72
2021/04/06 20:37:33;;;;;;;14.43;5.80;;;;;;;1.66;74.30;99468.23;4880142;59;1134379;-72
2021/04/06 20:43:00;;;;;;;20.03;6.30;;;;;;;1.62;74.78;99469.33;4891096;58;1134617;-72
2021/04/06 20:48:25;;;;;;;18.10;5.22;;;;;;;1.57;74.10;99476.55;4887037;59;1134771;-73
2021/04/06 20:53:50;;;;;;;20.90;7.13;;;;;;;1.52;75.07;99476.00;5016156;57;1134514;-74
2021/04/06 20:59:16;;;;;;;18.10;4.43;;;;;;;1.47;75.42;99471.50;5036798;56;1134661;-74
2021/04/06 21:04:42;;;;;;;15.97;5.80;;;;;;;1.41;76.50;99470.08;5044435;56;1134681;-74
2021/04/06 21:10:09;;;;;;;15.60;5.87;;;;;;;1.35;76.41;99471.74;5057607;56;1134370;-71
2021/04/06 21:15:35;;;;;;;14.60;5.63;;;;;;;1.29;77.24;99468.17;4940040;58;1135214;-71
2021/04/06 21:21:01;;;;;;;12.30;4.27;;;;;;;1.24;77.71;99464.52;5051254;56;1134913;-73
2021/04/06 21:26:26;;;;;;;13.83;5.37;;;;;;;1.17;77.85;99466.27;5056075;56;1134484;-75
2021/04/06 21:31:51;;;;;;;16.53;5.03;;;;;;;1.14;77.43;99469.88;5055115;56;1134562;-75
2021/04/06 21:37:18;;;;;;;10.37;3.50;;;;;;;1.11;77.46;99471.80;5049321;56;1134427;-74
2021/04/06 21:42:44;;;;;;;8.57;3.80;;;;;;;1.07;77.81;99465.11;5051880;57;1135037;-71
2021/04/06 21:48:09;;;;;;;21.97;4.27;;;;;;;1.05;78.19;99459.52;5066275;56;1132846;-74
2021/04/06 21:53:34;;;;;;;7.43;2.53;;;;;;;1.00;78.07;99466.73;5094331;56;1134379;-71
2021/04/06 21:59:00;;;;;;;8.83;3.13;;;;;;;0.96;79.30;99472.19;5073687;57;1132327;-73
2021/04/06 22:04:26;;;;;;;14.98;4.60;;;;;;;0.95;78.33;99462.23;5032445;57;1132348;-71
2021/04/06 22:09:52;;;;;;;7.83;3.40;;;;;;;0.92;78.28;99458.49;5049766;57;1134900;-74
2021/04/06 22:15:21;;;;;;;5.03;2.63;;;;;;;0.88;78.56;99457.47;5003205;57;1133525;-72
2021/04/06 22:20:48;;;;;;;9.90;3.27;;;;;;;0.85;78.82;99456.33;4964094;57;1132389;-74
2021/04/06 22:26:14;;;;;;;11.77;4.47;;;;;;;0.79;79.68;99454.88;4938796;57;1132326;-74
2021/04/06 22:31:39;;;;;;;12.97;3.83;;;;;;;0.76;79.46;99452.94;4945167;57;1134429;-71
2021/04/06 22:37:04;;;;;;;5.27;3.07;;;;;;;0.72;79.55;99453.56;5026528;56;1134468;-75
2021/04/06 22:42:31;;;;;;;10.58;3.52;;;;;;;0.68;79.42;99446.83;5043559;57;1132574;-77
2021/04/06 22:47:56;;;;;;;5.07;2.80;;;;;;;0.66;79.97;99445.61;4892954;59;1134327;-73
2021/04/06 22:53:26;;;;;;;10.58;4.00;;;;;;;0.59;80.53;99434.34;4845568;59;1132158;-75
2021/04/06 22:58:53;;;;;;;10.37;4.40;;;;;;;0.55;80.77;99445.36;4841674;59;1134478;-76
2021/04/06 23:04:17;;;;;;;7.20;3.37;;;;;;;0.50;80.78;99449.11;4884846;59;1135039;-73
2021/04/06 23:09:44;;;;;;;9.00;3.87;;;;;;;0.46;81.48;99443.72;4906812;58;1132432;-73
2021/04/06 23:15:14;;;;;;;5.42;3.65;;;;;;;0.45;80.86;99453.75;4906192;58;1132786;-73
2021/04/06 23:20:41;;;;;;;15.33;5.67;;;;;;;0.44;81.21;99458.56;4933774;58;1132507;-70
2021/04/06 23:26:07;;;;;;;10.07;5.13;;;;;;;0.41;81.01;99475.63;4770266;58;1134447;-72
2021/04/06 23:31:33;;;;;;;12.53;3.42;;;;;;;0.35;81.28;99456.81;4828409;58;1134475;-75
2021/04/06 23:36:57;;;;;;;7.57;5.70;;;;;;;0.31;81.76;99464.39;4903082;58;1134488;-73
2021/04/06 23:42:22;;;;;;;5.35;3.72;;;;;;;0.26;81.33;99463.81;4855016;59;1132541;-73
2021/04/06 23:47:48;;;;;;;10.37;6.20;;;;;;;0.22;81.57;99467.48;4884645;58;1132400;-71
2021/04/06 23:53:14;;;;;;;10.80;5.00;;;;;;;0.20;81.27;99460.67;4848919;59;1134384;-73
2021/04/06 23:58:40;;;;;;;10.00;4.37;;;;;;;0.17;81.15;99456.93;4808184;60;1134367;-71
